Time;durP1;ratioP1;P1;durP2;ratioP2;P2;SDS_P1;SDS_P2;PMS_P1;PMS_P2;Temp;Humidity;BMP_temperature;BMP_pressure;BME280_temperature;BME280_humidity;BME280_pressure;Samples;Min_cycle;Max_cycle;Signal;HPM_P1;HPM_P2
2023/04/25 00:01:27;;;;;;;20.80;18.90;;;;;;;;;;137711;1265;22198;-80
2023/04/25 00:04:29;;;;;;;21.50;19.10;;;;;;;;;;137748;1272;22046;-82
2023/04/25 00:07:31;;;;;;;23.50;19.90;;;;;;;;;;137713;1272;22209;-82
2023/04/25 00:10:32;;;;;;;19.60;17.60;;;;;;;;;;137730;1272;22046;-81
2023/04/25 00:13:33;;;;;;;24.30;18.80;;;;;;;;;;137680;1272;22169;-81
2023/04/25 00:16:35;;;;;;;23.20;19.40;;;;;;;;;;137704;1272;22286;-82
2023/04/25 00:19:37;;;;;;;18.90;17.00;;;;;;;;;;137694;1272;22332;-81
2023/04/25 00:22:38;;;;;;;19.20;17.30;;;;;;;;;;137679;1272;22134;-82
2023/04/25 00:25:39;;;;;;;21.20;17.50;;;;;;;;;;137749;1272;22125;-82
2023/04/25 00:28:40;;;;;;;19.20;15.80;;;;;;;;;;137711;1268;22251;-81
2023/04/25 00:31:44;;;;;;;18.90;15.60;;;;;;;;;;137747;1272;22069;-83
2023/04/25 00:34:45;;;;;;;17.10;15.20;;;;;;;;;;137730;1272;21926;-81
2023/04/25 00:37:46;;;;;;;17.60;13.30;;;;;;;;;;137579;1272;159421;-82
2023/04/25 00:40:47;;;;;;;12.50;11.30;;;;;;;;;;137723;1272;22057;-81
2023/04/25 00:43:48;;;;;;;11.40;10.30;;;;;;;;;;137727;1272;22053;-82
2023/04/25 00:46:50;;;;;;;14.40;11.20;;;;;;;;;;137720;1272;22223;-83
2023/04/25 00:49:51;;;;;;;9.90;8.90;;;;;;;;;;137726;1272;22144;-83
2023/04/25 00:52:52;;;;;;;11.30;9.60;;;;;;;;;;137699;1272;22297;-83
2023/04/25 00:55:53;;;;;;;8.90;7.60;;;;;;;;;;137702;1272;22267;-83
2023/04/25 00:58:54;;;;;;;10.90;7.70;;;;;;;;;;137719;1272;22522;-83
2023/04/25 01:01:55;;;;;;;8.50;7.70;;;;;;;;;;137636;1272;22730;-82
2023/04/25 01:04:56;;;;;;;7.60;6.90;;;;;;;;;;137720;1265;22248;-82
2023/04/25 01:07:57;;;;;;;7.10;6.30;;;;;;;;;;137646;1272;22244;-82
2023/04/25 01:10:58;;;;;;;7.00;6.00;;;;;;;;;;137737;1272;22228;-81
2023/04/25 01:14:00;;;;;;;9.30;5.70;;;;;;;;;;137701;1272;22054;-82
2023/04/25 01:17:01;;;;;;;8.30;5.90;;;;;;;;;;137673;1272;22649;-83
2023/04/25 01:20:03;;;;;;;6.30;5.50;;;;;;;;;;137696;1272;22173;-83
2023/04/25 01:23:04;;;;;;;7.00;5.30;;;;;;;;;;137727;1272;22093;-83
2023/04/25 01:26:05;;;;;;;10.10;8.00;;;;;;;;;;137690;1272;22097;-83
2023/04/25 01:29:06;;;;;;;11.10;9.60;;;;;;;;;;137748;1272;22437;-84
2023/04/25 01:32:07;;;;;;;6.70;5.50;;;;;;;;;;137695;1272;22053;-84
2023/04/25 01:35:09;;;;;;;8.10;4.70;;;;;;;;;;137706;1272;22132;-85
2023/04/25 01:38:10;;;;;;;7.00;5.20;;;;;;;;;;137645;1272;22349;-84
2023/04/25 01:41:13;;;;;;;9.40;6.00;;;;;;;;;;137709;1272;22299;-84
2023/04/25 01:44:14;;;;;;;7.80;5.40;;;;;;;;;;137703;1272;22219;-83
2023/04/25 01:47:15;;;;;;;6.50;4.40;;;;;;;;;;137718;1272;22110;-84
2023/04/25 01:50:16;;;;;;;7.10;4.90;;;;;;;;;;137707;1272;22065;-84
2023/04/25 01:53:17;;;;;;;6.10;5.40;;;;;;;;;;137718;1265;22079;-84
2023/04/25 01:56:21;;;;;;;7.50;5.90;;;;;;;;;;137748;1272;22186;-83
2023/04/25 01:59:22;;;;;;;9.30;6.60;;;;;;;;;;137748;1272;22528;-83
2023/04/25 02:02:23;;;;;;;8.30;5.90;;;;;;;;;;137726;1272;22233;-83
2023/04/25 02:05:24;;;;;;;6.40;5.70;;;;;;;;;;137709;1272;22568;-81
2023/04/25 02:08:26;;;;;;;9.70;6.90;;;;;;;;;;137744;1272;22429;-82
2023/04/25 02:11:27;;;;;;;9.80;7.00;;;;;;;;;;137728;1272;22041;-82
2023/04/25 02:14:28;;;;;;;11.50;8.00;;;;;;;;;;137748;1257;22502;-82
2023/04/25 02:17:31;;;;;;;8.70;6.90;;;;;;;;;;137670;1272;22049;-83
2023/04/25 02:20:32;;;;;;;10.80;7.00;;;;;;;;;;137704;1272;22151;-82
2023/04/25 02:23:33;;;;;;;11.40;8.60;;;;;;;;;;137713;1272;22130;-83
2023/04/25 02:26:34;;;;;;;8.30;6.90;;;;;;;;;;137752;1272;22130;-82
2023/04/25 02:29:35;;;;;;;7.60;6.30;;;;;;;;;;137703;1272;22079;-83
2023/04/25 02:32:36;;;;;;;14.60;8.60;;;;;;;;;;137723;1272;22080;-83
2023/04/25 02:35:37;;;;;;;7.50;6.70;;;;;;;;;;137729;1272;22191;-83
2023/04/25 02:38:38;;;;;;;7.60;6.90;;;;;;;;;;137657;1272;22148;-83
2023/04/25 02:41:39;;;;;;;7.20;6.50;;;;;;;;;;137723;1272;22116;-81
2023/04/25 02:44:40;;;;;;;7.50;6.80;;;;;;;;;;137663;1272;22815;-82
2023/04/25 02:47:41;;;;;;;10.00;8.00;;;;;;;;;;137680;1266;22607;-82
2023/04/25 02:50:43;;;;;;;8.30;7.40;;;;;;;;;;137699;1272;22119;-82
2023/04/25 02:53:44;;;;;;;9.20;7.80;;;;;;;;;;137724;1272;22244;-83
2023/04/25 02:56:45;;;;;;;8.40;7.50;;;;;;;;;;137646;1272;22632;-81
2023/04/25 02:59:46;;;;;;;9.80;8.50;;;;;;;;;;137690;1272;22120;-83
2023/04/25 03:02:47;;;;;;;10.40;9.30;;;;;;;;;;137697;1272;22110;-83
2023/04/25 03:05:48;;;;;;;11.80;8.30;;;;;;;;;;137689;1271;22186;-82
2023/04/25 03:08:49;;;;;;;11.60;9.90;;;;;;;;;;137673;1272;22132;-82
2023/04/25 03:11:50;;;;;;;11.60;9.50;;;;;;;;;;137702;1272;22243;-83
2023/04/25 03:14:51;;;;;;;12.30;11.00;;;;;;;;;;137699;1272;22082;-83
2023/04/25 03:17:52;;;;;;;14.60;10.40;;;;;;;;;;137712;1259;22704;-83
2023/04/25 03:20:53;;;;;;;10.70;9.70;;;;;;;;;;137706;1271;22086;-83
2023/04/25 03:23:54;;;;;;;11.30;10.00;;;;;;;;;;137696;1272;22150;-82
2023/04/25 03:26:55;;;;;;;11.50;10.00;;;;;;;;;;137697;1272;22017;-83
2023/04/25 03:29:56;;;;;;;15.40;9.70;;;;;;;;;;137715;1272;22175;-84
2023/04/25 03:32:58;;;;;;;11.80;10.10;;;;;;;;;;137705;1272;22162;-83
2023/04/25 03:35:59;;;;;;;11.40;9.80;;;;;;;;;;137687;1272;22152;-83
2023/04/25 03:39:00;;;;;;;11.60;9.60;;;;;;;;;;137699;1272;22174;-83
2023/04/25 03:42:01;;;;;;;12.30;9.30;;;;;;;;;;137657;1272;22303;-83
2023/04/25 03:45:02;;;;;;;10.70;9.00;;;;;;;;;;137668;1272;22138;-83
2023/04/25 03:48:03;;;;;;;10.80;8.40;;;;;;;;;;137597;1272;22463;-84
2023/04/25 03:51:04;;;;;;;13.60;9.70;;;;;;;;;;137713;1272;22128;-84
2023/04/25 03:54:05;;;;;;;12.60;10.10;;;;;;;;;;137654;1272;22131;-83
2023/04/25 03:57:06;;;;;;;12.70;10.00;;;;;;;;;;137662;1272;22172;-84
2023/04/25 04:00:07;;;;;;;13.70;10.60;;;;;;;;;;137647;1272;22103;-83
2023/04/25 04:03:09;;;;;;;17.80;11.20;;;;;;;;;;137660;1272;22147;-84
2023/04/25 04:06:10;;;;;;;12.40;10.10;;;;;;;;;;137629;1272;22106;-84
2023/04/25 04:09:12;;;;;;;13.40;9.70;;;;;;;;;;137640;1272;22181;-84
2023/04/25 04:12:13;;;;;;;11.70;9.80;;;;;;;;;;137623;1272;22279;-84
2023/04/25 04:15:14;;;;;;;14.30;11.10;;;;;;;;;;137646;1272;22126;-84
2023/04/25 04:18:15;;;;;;;19.10;12.10;;;;;;;;;;137647;1272;22307;-83
2023/04/25 04:21:16;;;;;;;17.60;11.60;;;;;;;;;;137565;1272;22128;-83
2023/04/25 04:24:17;;;;;;;12.60;10.30;;;;;;;;;;137554;1272;22098;-83
2023/04/25 04:27:19;;;;;;;14.00;10.80;;;;;;;;;;137640;1272;22610;-83
2023/04/25 04:30:21;;;;;;;15.60;10.40;;;;;;;;;;137636;1272;22124;-82
2023/04/25 04:33:24;;;;;;;12.50;10.40;;;;;;;;;;137603;1272;22218;-83
2023/04/25 04:36:26;;;;;;;12.00;10.80;;;;;;;;;;137681;1272;22259;-84
2023/04/25 04:39:27;;;;;;;11.20;10.00;;;;;;;;;;137651;1272;22433;-83
2023/04/25 04:42:29;;;;;;;13.20;10.60;;;;;;;;;;137639;1272;22097;-83
2023/04/25 04:45:30;;;;;;;11.60;9.80;;;;;;;;;;137681;1272;22139;-84
2023/04/25 04:48:32;;;;;;;16.40;11.70;;;;;;;;;;137680;1272;22797;-85
2023/04/25 04:51:33;;;;;;;13.60;12.20;;;;;;;;;;137711;1272;22140;-85
2023/04/25 04:54:35;;;;;;;14.00;12.30;;;;;;;;;;137670;1272;22719;-84
2023/04/25 04:57:36;;;;;;;14.60;11.30;;;;;;;;;;137632;1272;22114;-84
2023/04/25 05:00:38;;;;;;;14.30;10.60;;;;;;;;;;137624;1272;22662;-84
2023/04/25 05:03:39;;;;;;;11.90;9.50;;;;;;;;;;137646;1272;22202;-83
2023/04/25 05:06:40;;;;;;;11.30;9.00;;;;;;;;;;137679;1272;22076;-82
2023/04/25 05:09:41;;;;;;;13.10;8.70;;;;;;;;;;137616;1272;22553;-82
2023/04/25 05:12:42;;;;;;;13.20;9.50;;;;;;;;;;137602;1272;22116;-83
2023/04/25 05:15:43;;;;;;;12.40;9.10;;;;;;;;;;137617;1272;22223;-83
2023/04/25 05:18:44;;;;;;;9.60;8.70;;;;;;;;;;137596;1272;22972;-82
2023/04/25 05:21:45;;;;;;;11.70;10.00;;;;;;;;;;137599;1272;22634;-81
2023/04/25 05:24:48;;;;;;;9.70;7.60;;;;;;;;;;137613;1264;22245;-83
2023/04/25 05:27:50;;;;;;;9.50;7.40;;;;;;;;;;137637;1272;22155;-83
2023/04/25 05:30:52;;;;;;;10.10;7.10;;;;;;;;;;137613;1272;22092;-81
2023/04/25 05:33:53;;;;;;;8.40;6.90;;;;;;;;;;137614;1272;22191;-82
2023/04/25 05:36:57;;;;;;;8.10;6.90;;;;;;;;;;137649;1272;22596;-82
2023/04/25 05:39:58;;;;;;;8.50;6.90;;;;;;;;;;137622;1272;22294;-81
2023/04/25 05:42:59;;;;;;;11.30;6.40;;;;;;;;;;137633;1260;22117;-82
2023/04/25 05:46:00;;;;;;;7.20;6.20;;;;;;;;;;137639;1272;22126;-81
2023/04/25 05:49:01;;;;;;;8.10;6.70;;;;;;;;;;137599;1272;22218;-82
2023/04/25 05:52:02;;;;;;;7.50;6.80;;;;;;;;;;137615;1266;22099;-81
2023/04/25 05:55:03;;;;;;;7.30;6.30;;;;;;;;;;137583;1272;22175;-82
2023/04/25 05:58:05;;;;;;;12.30;7.00;;;;;;;;;;137578;1268;22474;-81
2023/04/25 06:01:06;;;;;;;7.90;6.20;;;;;;;;;;137593;1272;22111;-81
2023/04/25 06:04:07;;;;;;;7.10;6.40;;;;;;;;;;137578;1272;22112;-81
2023/04/25 06:07:08;;;;;;;6.50;5.90;;;;;;;;;;137577;1272;22105;-82
2023/04/25 06:10:09;;;;;;;7.70;6.30;;;;;;;;;;137602;1272;22708;-82
2023/04/25 06:13:10;;;;;;;7.30;6.60;;;;;;;;;;137651;1272;22115;-81
2023/04/25 06:16:13;;;;;;;9.60;6.30;;;;;;;;;;137695;1272;22864;-81
2023/04/25 06:19:14;;;;;;;8.00;6.50;;;;;;;;;;137588;1272;22106;-83
2023/04/25 06:22:15;;;;;;;8.70;6.50;;;;;;;;;;137636;1272;22104;-82
2023/04/25 06:25:18;;;;;;;8.40;6.50;;;;;;;;;;137597;1272;22164;-83
2023/04/25 06:28:19;;;;;;;7.40;6.60;;;;;;;;;;137627;1272;22098;-82
2023/04/25 06:31:20;;;;;;;7.60;6.50;;;;;;;;;;137596;1272;22210;-80
2023/04/25 06:34:21;;;;;;;7.00;6.30;;;;;;;;;;137627;1272;22095;-84
2023/04/25 06:37:22;;;;;;;8.30;7.30;;;;;;;;;;137612;1272;22235;-82
2023/04/25 06:40:26;;;;;;;8.20;6.30;;;;;;;;;;137630;1268;22174;-82
2023/04/25 06:43:27;;;;;;;9.10;6.90;;;;;;;;;;137621;1265;22124;-82
2023/04/25 06:46:28;;;;;;;7.70;7.00;;;;;;;;;;137656;1272;22108;-81
2023/04/25 06:49:29;;;;;;;9.10;6.10;;;;;;;;;;137656;1272;22123;-81
2023/04/25 06:52:30;;;;;;;7.10;6.30;;;;;;;;;;137688;1272;22097;-84
2023/04/25 06:55:31;;;;;;;7.70;6.10;;;;;;;;;;137615;1272;22465;-83
2023/04/25 06:58:32;;;;;;;7.70;7.00;;;;;;;;;;137711;1272;22098;-83
2023/04/25 07:01:33;;;;;;;8.60;7.10;;;;;;;;;;137639;1272;22125;-82
2023/04/25 07:04:35;;;;;;;12.40;7.00;;;;;;;;;;137590;1272;22115;-81
2023/04/25 07:07:36;;;;;;;8.00;6.40;;;;;;;;;;137662;1272;22144;-82
2023/04/25 07:10:37;;;;;;;9.70;7.70;;;;;;;;;;137622;1268;22125;-82
2023/04/25 07:13:38;;;;;;;7.80;6.80;;;;;;;;;;137594;1272;22419;-82
2023/04/25 07:16:39;;;;;;;9.20;6.50;;;;;;;;;;137637;1265;22277;-81
2023/04/25 07:19:40;;;;;;;9.00;7.20;;;;;;;;;;137589;1272;22153;-80
2023/04/25 07:22:42;;;;;;;7.90;6.60;;;;;;;;;;137596;1272;22537;-82
2023/04/25 07:25:43;;;;;;;9.50;7.60;;;;;;;;;;137577;1267;22574;-81
2023/04/25 07:28:44;;;;;;;10.50;7.50;;;;;;;;;;137593;1272;22186;-81
2023/04/25 07:31:45;;;;;;;9.70;7.20;;;;;;;;;;137593;1268;22116;-82
2023/04/25 07:34:47;;;;;;;10.50;7.90;;;;;;;;;;137585;1265;22103;-82
2023/04/25 07:37:48;;;;;;;9.80;8.40;;;;;;;;;;137585;1272;22657;-82
2023/04/25 07:40:50;;;;;;;7.90;7.10;;;;;;;;;;137573;1267;22172;-82
2023/04/25 07:43:51;;;;;;;12.40;8.10;;;;;;;;;;137616;1272;22152;-81
2023/04/25 07:46:52;;;;;;;8.90;7.80;;;;;;;;;;137597;1272;22112;-80
2023/04/25 07:49:54;;;;;;;9.60;7.60;;;;;;;;;;137606;1272;22129;-81
2023/04/25 07:52:55;;;;;;;8.70;7.80;;;;;;;;;;137605;1272;22116;-82
2023/04/25 07:55:56;;;;;;;9.70;8.10;;;;;;;;;;137613;1272;22265;-82
2023/04/25 07:58:58;;;;;;;11.00;8.50;;;;;;;;;;137599;1272;22151;-80
2023/04/25 08:01:59;;;;;;;10.20;7.60;;;;;;;;;;137596;1272;22257;-81
2023/04/25 08:05:00;;;;;;;9.00;7.40;;;;;;;;;;137610;1272;22247;-82
2023/04/25 08:08:02;;;;;;;8.40;7.60;;;;;;;;;;137575;1262;22138;-81
2023/04/25 08:11:03;;;;;;;10.60;8.20;;;;;;;;;;137649;1272;22217;-83
2023/04/25 08:14:04;;;;;;;10.00;7.50;;;;;;;;;;137654;1272;22191;-83
2023/04/25 08:17:05;;;;;;;9.50;7.10;;;;;;;;;;137651;1272;22201;-84
2023/04/25 08:20:06;;;;;;;10.10;8.00;;;;;;;;;;137613;1272;22795;-81
2023/04/25 08:23:07;;;;;;;9.20;8.30;;;;;;;;;;137577;1272;22108;-80
2023/04/25 08:26:09;;;;;;;12.50;8.40;;;;;;;;;;137621;1272;22196;-84
2023/04/25 08:29:10;;;;;;;11.20;8.00;;;;;;;;;;137585;1272;22141;-82
2023/04/25 08:32:11;;;;;;;10.50;7.50;;;;;;;;;;137587;1272;22106;-82
2023/04/25 08:35:12;;;;;;;9.20;8.20;;;;;;;;;;137610;1272;22116;-85
2023/04/25 08:38:13;;;;;;;9.20;8.30;;;;;;;;;;137593;1272;22127;-83
2023/04/25 08:41:15;;;;;;;11.00;8.00;;;;;;;;;;137626;1269;22121;-84
2023/04/25 08:44:16;;;;;;;10.20;8.10;;;;;;;;;;137642;1272;22591;-84
2023/04/25 08:47:17;;;;;;;7.70;6.90;;;;;;;;;;137667;1272;22119;-83
2023/04/25 08:50:19;;;;;;;12.30;9.20;;;;;;;;;;137623;1272;22098;-82
2023/04/25 08:53:20;;;;;;;9.90;8.90;;;;;;;;;;137639;1272;22742;-81
2023/04/25 08:56:23;;;;;;;10.50;8.30;;;;;;;;;;137589;1272;22147;-82
2023/04/25 08:59:25;;;;;;;10.30;8.70;;;;;;;;;;137638;1272;22687;-85
2023/04/25 09:02:27;;;;;;;12.50;8.80;;;;;;;;;;137614;1272;22909;-83
2023/04/25 09:05:28;;;;;;;12.30;9.90;;;;;;;;;;137636;1272;22493;-83
2023/04/25 09:08:30;;;;;;;10.40;9.30;;;;;;;;;;137600;1272;22254;-83
2023/04/25 09:11:31;;;;;;;17.00;10.50;;;;;;;;;;137640;1272;22176;-83
2023/04/25 09:14:32;;;;;;;9.70;8.00;;;;;;;;;;137613;1272;22573;-83
2023/04/25 09:17:34;;;;;;;10.00;7.50;;;;;;;;;;137645;1268;22200;-82
2023/04/25 09:20:35;;;;;;;7.60;6.80;;;;;;;;;;137625;1272;22415;-82
2023/04/25 09:23:36;;;;;;;10.70;7.80;;;;;;;;;;137610;1272;22149;-82
2023/04/25 09:26:37;;;;;;;10.70;8.00;;;;;;;;;;137652;1272;22184;-83
2023/04/25 09:29:39;;;;;;;7.70;7.00;;;;;;;;;;137647;1272;22136;-82
2023/04/25 09:32:41;;;;;;;9.60;8.00;;;;;;;;;;137664;1272;22178;-82
2023/04/25 09:35:42;;;;;;;12.80;9.10;;;;;;;;;;137719;1259;22260;-81
2023/04/25 09:38:43;;;;;;;8.40;7.20;;;;;;;;;;137653;1272;22269;-81
2023/04/25 09:41:45;;;;;;;7.10;6.40;;;;;;;;;;137601;1272;22280;-83
2023/04/25 09:44:46;;;;;;;7.40;6.70;;;;;;;;;;137619;1272;22124;-81
2023/04/25 09:47:47;;;;;;;9.20;7.50;;;;;;;;;;137644;1272;22076;-81
2023/04/25 09:50:49;;;;;;;13.40;5.20;;;;;;;;;;137567;1272;22193;-81
2023/04/25 09:53:50;;;;;;;11.80;6.60;;;;;;;;;;137629;1272;22126;-82
2023/04/25 09:56:51;;;;;;;7.50;5.40;;;;;;;;;;137640;1268;22153;-82
2023/04/25 09:59:53;;;;;;;5.00;4.20;;;;;;;;;;137620;1272;22620;-81
2023/04/25 10:02:54;;;;;;;5.20;4.10;;;;;;;;;;137656;1272;22097;-81
2023/04/25 10:05:55;;;;;;;6.40;4.90;;;;;;;;;;137634;1272;22506;-81
2023/04/25 10:08:56;;;;;;;5.30;4.20;;;;;;;;;;137679;1272;22127;-82
2023/04/25 10:11:57;;;;;;;6.90;4.90;;;;;;;;;;137576;1268;22128;-81
2023/04/25 10:14:59;;;;;;;7.90;6.50;;;;;;;;;;137605;1272;22153;-82
2023/04/25 10:18:00;;;;;;;4.60;3.20;;;;;;;;;;137583;1272;22433;-80
2023/04/25 10:21:01;;;;;;;3.50;3.20;;;;;;;;;;137621;1272;22153;-81
2023/04/25 10:24:02;;;;;;;4.20;3.80;;;;;;;;;;137622;1272;22161;-81
2023/04/25 10:27:04;;;;;;;5.30;3.80;;;;;;;;;;137588;1268;22176;-82
2023/04/25 10:30:05;;;;;;;4.20;3.50;;;;;;;;;;137631;1272;22220;-82
2023/04/25 10:33:07;;;;;;;4.20;3.20;;;;;;;;;;137614;1272;22331;-81
2023/04/25 10:36:08;;;;;;;4.50;3.60;;;;;;;;;;137671;1272;22106;-81
2023/04/25 10:39:09;;;;;;;6.90;4.50;;;;;;;;;;137589;1272;22132;-81
2023/04/25 10:42:10;;;;;;;15.80;5.50;;;;;;;;;;137634;1272;22701;-81
2023/04/25 10:45:11;;;;;;;8.10;5.30;;;;;;;;;;137597;1272;22117;-80
2023/04/25 10:48:12;;;;;;;10.80;5.90;;;;;;;;;;137594;1272;22169;-80
2023/04/25 10:51:13;;;;;;;6.60;5.20;;;;;;;;;;137634;1272;22210;-81
2023/04/25 10:54:15;;;;;;;7.20;5.20;;;;;;;;;;137640;1272;22219;-81
2023/04/25 10:57:16;;;;;;;9.40;5.80;;;;;;;;;;137605;1263;22205;-82
2023/04/25 11:00:17;;;;;;;9.00;6.10;;;;;;;;;;137597;1272;22105;-82
2023/04/25 11:03:18;;;;;;;8.30;6.20;;;;;;;;;;137610;1272;22118;-81
2023/04/25 11:06:19;;;;;;;8.30;5.50;;;;;;;;;;137591;1272;22543;-82
2023/04/25 11:09:20;;;;;;;12.30;6.10;;;;;;;;;;137578;1272;22289;-82
2023/04/25 11:12:21;;;;;;;8.00;5.90;;;;;;;;;;137586;1257;22137;-81
2023/04/25 11:15:22;;;;;;;12.10;5.70;;;;;;;;;;137567;1272;22102;-83
2023/04/25 11:18:23;;;;;;;6.30;5.70;;;;;;;;;;137556;1272;22115;-81
2023/04/25 11:21:26;;;;;;;8.60;6.20;;;;;;;;;;137571;1272;22089;-82
2023/04/25 11:24:27;;;;;;;7.30;5.40;;;;;;;;;;137571;1272;22532;-80
2023/04/25 11:27:28;;;;;;;8.50;5.90;;;;;;;;;;137563;1272;22741;-81
2023/04/25 11:30:30;;;;;;;7.50;6.00;;;;;;;;;;137609;1272;22681;-81
2023/04/25 11:33:31;;;;;;;4.70;4.30;;;;;;;;;;137491;1272;22113;-82
2023/04/25 11:36:32;;;;;;;6.10;4.50;;;;;;;;;;137600;1261;22143;-82
2023/04/25 11:39:33;;;;;;;5.00;4.40;;;;;;;;;;137611;1272;22148;-81
2023/04/25 11:42:34;;;;;;;5.20;4.70;;;;;;;;;;137650;1272;22246;-81
2023/04/25 11:45:35;;;;;;;4.50;3.60;;;;;;;;;;137611;1272;22151;-82
2023/04/25 11:48:36;;;;;;;5.20;3.00;;;;;;;;;;137583;1272;22146;-79
2023/04/25 11:51:38;;;;;;;4.50;3.50;;;;;;;;;;137584;1272;22223;-82
2023/04/25 11:54:39;;;;;;;4.90;3.60;;;;;;;;;;137588;1272;22124;-81
2023/04/25 11:57:40;;;;;;;7.30;4.70;;;;;;;;;;137659;1257;22151;-80
2023/04/25 12:00:41;;;;;;;10.80;5.50;;;;;;;;;;137616;1272;22561;-81
2023/04/25 12:03:42;;;;;;;8.30;5.70;;;;;;;;;;137570;1272;22093;-82
2023/04/25 12:06:43;;;;;;;8.80;5.60;;;;;;;;;;137566;1267;22214;-81
2023/04/25 12:09:44;;;;;;;12.40;7.70;;;;;;;;;;137522;1272;22114;-80
2023/04/25 12:12:45;;;;;;;11.60;6.50;;;;;;;;;;137551;1272;22244;-81
2023/04/25 12:15:47;;;;;;;13.00;7.80;;;;;;;;;;137566;1260;22165;-81
2023/04/25 12:18:48;;;;;;;8.90;5.30;;;;;;;;;;137539;1272;22303;-80
2023/04/25 12:21:49;;;;;;;7.50;5.20;;;;;;;;;;137529;1272;22939;-80
2023/04/25 12:24:50;;;;;;;6.30;4.00;;;;;;;;;;137531;1272;22130;-81
2023/04/25 12:27:52;;;;;;;5.30;3.60;;;;;;;;;;137506;1272;22241;-81
2023/04/25 12:30:54;;;;;;;7.60;3.80;;;;;;;;;;137496;1267;22422;-79
2023/04/25 12:33:55;;;;;;;4.40;3.40;;;;;;;;;;137545;1272;22117;-79
2023/04/25 12:36:56;;;;;;;8.30;5.20;;;;;;;;;;137401;1272;208850;-81
2023/04/25 12:39:57;;;;;;;7.00;4.70;;;;;;;;;;137566;1272;22155;-80
2023/04/25 12:42:59;;;;;;;7.90;5.40;;;;;;;;;;137589;1272;22136;-82
2023/04/25 12:46:00;;;;;;;11.00;6.80;;;;;;;;;;137578;1272;22271;-81
2023/04/25 12:49:03;;;;;;;14.50;6.90;;;;;;;;;;137602;1272;22118;-81
2023/04/25 12:52:04;;;;;;;10.40;5.40;;;;;;;;;;137641;1272;22113;-80
2023/04/25 12:55:05;;;;;;;6.90;4.50;;;;;;;;;;137630;1272;22591;-82
2023/04/25 12:58:07;;;;;;;7.00;4.50;;;;;;;;;;137599;1272;22102;-82
2023/04/25 13:01:08;;;;;;;6.70;3.80;;;;;;;;;;137645;1272;22840;-82
2023/04/25 13:04:10;;;;;;;5.80;4.10;;;;;;;;;;137647;1272;22158;-82
2023/04/25 13:07:11;;;;;;;5.40;4.80;;;;;;;;;;137668;1272;22304;-81
2023/04/25 13:10:12;;;;;;;5.80;4.10;;;;;;;;;;137670;1272;22162;-81
2023/04/25 13:13:13;;;;;;;9.70;5.10;;;;;;;;;;137695;1272;22106;-81
2023/04/25 13:16:14;;;;;;;12.60;7.40;;;;;;;;;;137634;1272;22136;-81
2023/04/25 13:19:15;;;;;;;16.60;8.10;;;;;;;;;;137627;1266;22143;-81
2023/04/25 13:22:16;;;;;;;18.20;9.40;;;;;;;;;;137599;1251;22131;-81
2023/04/25 13:25:18;;;;;;;15.20;7.50;;;;;;;;;;137575;1272;22742;-81
2023/04/25 13:28:19;;;;;;;10.30;6.80;;;;;;;;;;137579;1272;22108;-80
2023/04/25 13:31:20;;;;;;;9.60;7.10;;;;;;;;;;137512;1272;22109;-80
2023/04/25 13:34:22;;;;;;;15.60;8.30;;;;;;;;;;137593;1272;22613;-81
2023/04/25 13:37:23;;;;;;;16.10;7.70;;;;;;;;;;137595;1272;22586;-81
2023/04/25 13:40:25;;;;;;;9.10;4.70;;;;;;;;;;137611;1272;22584;-79
2023/04/25 13:43:26;;;;;;;7.30;4.90;;;;;;;;;;137650;1272;22081;-80
2023/04/25 13:46:27;;;;;;;10.40;5.60;;;;;;;;;;137664;1272;22148;-80
2023/04/25 13:49:28;;;;;;;11.80;5.50;;;;;;;;;;137653;1272;22132;-80
2023/04/25 13:52:29;;;;;;;7.70;5.30;;;;;;;;;;137609;1272;22474;-80
2023/04/25 13:55:30;;;;;;;8.20;5.30;;;;;;;;;;137625;1267;22221;-81
2023/04/25 13:58:32;;;;;;;10.70;6.20;;;;;;;;;;137573;1272;22259;-81
2023/04/25 14:01:35;;;;;;;9.40;6.50;;;;;;;;;;137644;1272;22146;-81
2023/04/25 14:04:36;;;;;;;13.80;7.90;;;;;;;;;;137648;1269;22136;-80
2023/04/25 14:07:37;;;;;;;20.60;9.90;;;;;;;;;;137583;1272;22117;-80
2023/04/25 14:10:38;;;;;;;19.60;9.90;;;;;;;;;;137610;1272;22730;-81
2023/04/25 14:13:39;;;;;;;17.80;11.90;;;;;;;;;;137632;1265;22126;-79
2023/04/25 14:16:40;;;;;;;13.20;6.60;;;;;;;;;;137605;1272;22207;-81
2023/04/25 14:19:43;;;;;;;8.60;6.00;;;;;;;;;;137638;1272;22129;-81
2023/04/25 14:22:44;;;;;;;8.30;5.60;;;;;;;;;;137609;1272;22108;-84
2023/04/25 14:25:47;;;;;;;10.30;6.60;;;;;;;;;;137587;1272;22129;-80
2023/04/25 14:28:48;;;;;;;15.30;7.70;;;;;;;;;;137569;1272;22116;-80
2023/04/25 14:31:49;;;;;;;12.70;8.60;;;;;;;;;;137578;1272;22612;-79
2023/04/25 14:34:50;;;;;;;13.00;7.80;;;;;;;;;;137589;1272;22091;-80
2023/04/25 14:37:51;;;;;;;11.80;6.40;;;;;;;;;;137661;1272;22800;-78
2023/04/25 14:40:53;;;;;;;14.50;5.90;;;;;;;;;;137696;1269;22275;-79
2023/04/25 14:43:56;;;;;;;9.00;4.90;;;;;;;;;;137626;1272;22237;-79
2023/04/25 14:46:57;;;;;;;9.90;5.10;;;;;;;;;;137667;1272;22755;-79
2023/04/25 14:49:58;;;;;;;8.10;4.80;;;;;;;;;;137582;1272;22284;-79
2023/04/25 14:53:00;;;;;;;4.50;3.60;;;;;;;;;;137629;1272;22170;-79
2023/04/25 14:56:01;;;;;;;5.60;4.50;;;;;;;;;;137626;1272;22764;-80
2023/04/25 14:59:02;;;;;;;5.30;3.90;;;;;;;;;;137609;1260;22675;-80
2023/04/25 15:02:03;;;;;;;12.80;4.50;;;;;;;;;;137641;1272;22128;-80
2023/04/25 15:05:04;;;;;;;8.10;5.40;;;;;;;;;;137653;1272;22379;-81
2023/04/25 15:08:05;;;;;;;9.40;6.10;;;;;;;;;;137658;1272;22650;-78
2023/04/25 15:11:06;;;;;;;10.00;6.40;;;;;;;;;;137678;1272;22168;-81
2023/04/25 15:14:07;;;;;;;12.80;6.30;;;;;;;;;;137700;1268;22177;-81
2023/04/25 15:17:08;;;;;;;9.90;5.50;;;;;;;;;;137685;1272;22779;-81
2023/04/25 15:20:10;;;;;;;6.90;4.70;;;;;;;;;;137705;1265;22138;-82
2023/04/25 15:23:11;;;;;;;7.90;5.70;;;;;;;;;;137695;1272;22132;-81
2023/04/25 15:26:12;;;;;;;5.40;4.60;;;;;;;;;;137702;1272;22142;-81
2023/04/25 15:29:13;;;;;;;9.20;5.10;;;;;;;;;;137686;1272;22512;-81
2023/04/25 15:32:14;;;;;;;6.00;4.80;;;;;;;;;;137726;1272;22620;-80
2023/04/25 15:35:15;;;;;;;7.10;5.30;;;;;;;;;;137717;1272;22131;-82
2023/04/25 15:38:16;;;;;;;11.20;5.50;;;;;;;;;;137691;1272;22966;-81
2023/04/25 15:41:17;;;;;;;14.90;6.20;;;;;;;;;;137652;1272;22598;-81
2023/04/25 15:44:18;;;;;;;12.00;6.20;;;;;;;;;;137685;1272;22108;-82
2023/04/25 15:47:20;;;;;;;6.40;4.70;;;;;;;;;;137680;1272;22122;-82
2023/04/25 15:50:21;;;;;;;6.30;4.40;;;;;;;;;;137679;1272;22121;-81
2023/04/25 15:53:22;;;;;;;13.20;6.10;;;;;;;;;;137669;1272;22102;-81
2023/04/25 15:56:23;;;;;;;9.20;6.50;;;;;;;;;;137720;1272;22237;-80
2023/04/25 15:59:24;;;;;;;9.70;6.40;;;;;;;;;;137678;1272;22213;-78
2023/04/25 16:02:25;;;;;;;10.80;6.40;;;;;;;;;;137610;1269;22189;-81
2023/04/25 16:05:26;;;;;;;9.10;5.50;;;;;;;;;;137650;1272;22175;-81
2023/04/25 16:08:32;;;;;;;15.00;8.30;;;;;;;;;;137740;1265;22137;-79
2023/04/25 16:11:34;;;;;;;8.80;6.20;;;;;;;;;;137725;1268;22533;-82
2023/04/25 16:14:35;;;;;;;9.50;7.40;;;;;;;;;;137715;1272;22141;-81
2023/04/25 16:17:36;;;;;;;8.70;6.50;;;;;;;;;;137695;1272;22137;-81
2023/04/25 16:20:37;;;;;;;12.20;7.40;;;;;;;;;;137712;1272;22161;-80
2023/04/25 16:23:38;;;;;;;8.80;7.00;;;;;;;;;;137677;1272;22278;-81
2023/04/25 16:26:39;;;;;;;8.30;6.20;;;;;;;;;;137694;1272;22140;-81
2023/04/25 16:29:40;;;;;;;8.00;6.00;;;;;;;;;;137685;1272;22130;-81
2023/04/25 16:32:41;;;;;;;10.70;6.60;;;;;;;;;;137734;1272;22092;-80
2023/04/25 16:35:42;;;;;;;11.90;6.80;;;;;;;;;;137656;1272;22161;-81
2023/04/25 16:38:44;;;;;;;16.00;9.80;;;;;;;;;;137731;1272;22148;-82
2023/04/25 16:41:45;;;;;;;11.60;8.60;;;;;;;;;;137665;1272;22133;-81
2023/04/25 16:44:46;;;;;;;11.70;7.80;;;;;;;;;;137723;1272;22148;-81
2023/04/25 16:47:47;;;;;;;9.40;6.90;;;;;;;;;;137688;1272;22091;-81
2023/04/25 16:50:48;;;;;;;9.80;7.00;;;;;;;;;;137688;1272;22117;-81
2023/04/25 16:53:49;;;;;;;12.90;9.50;;;;;;;;;;137691;1272;22279;-80
2023/04/25 16:56:51;;;;;;;15.40;9.50;;;;;;;;;;137698;1272;22169;-81
2023/04/25 16:59:52;;;;;;;19.20;11.90;;;;;;;;;;137681;1272;22816;-81
2023/04/25 17:02:53;;;;;;;16.70;10.90;;;;;;;;;;137746;1272;22224;-82
2023/04/25 17:05:55;;;;;;;17.10;12.40;;;;;;;;;;137675;1272;22455;-80
2023/04/25 17:08:56;;;;;;;21.50;15.50;;;;;;;;;;137716;1272;22090;-82
2023/04/25 17:11:58;;;;;;;16.30;11.70;;;;;;;;;;137734;1272;22150;-82
2023/04/25 17:15:00;;;;;;;10.20;8.70;;;;;;;;;;137740;1272;22238;-82
2023/04/25 17:18:01;;;;;;;13.50;8.80;;;;;;;;;;137678;1272;22360;-82
2023/04/25 17:21:02;;;;;;;12.60;9.30;;;;;;;;;;137674;1272;22190;-81
2023/04/25 17:24:08;;;;;;;10.20;7.60;;;;;;;;;;137709;1272;22168;-82
2023/04/25 17:27:09;;;;;;;12.40;8.50;;;;;;;;;;137742;1259;22222;-80
2023/04/25 17:30:11;;;;;;;11.80;6.70;;;;;;;;;;137746;1272;22142;-82
2023/04/25 17:33:20;;;;;;;14.70;9.00;;;;;;;;;;137688;1272;22357;-82
2023/04/25 17:36:21;;;;;;;17.50;11.80;;;;;;;;;;137717;1272;22154;-81
2023/04/25 17:39:22;;;;;;;20.00;12.00;;;;;;;;;;137693;1272;22132;-82